createdAt,value
2019-03-04T00:01:51.253Z,12.15
2019-03-04T00:11:51.932Z,12.23
2019-03-04T00:21:52.792Z,11.97
2019-03-04T00:31:55.422Z,12.12
2019-03-04T00:41:56.129Z,12.12
2019-03-04T00:51:56.993Z,12.15
2019-03-04T01:01:57.935Z,12.12
2019-03-04T01:11:58.942Z,12.06
2019-03-04T01:21:59.722Z,12.22
2019-03-04T01:32:00.803Z,12.25
2019-03-04T01:42:01.947Z,12.15
2019-03-04T01:52:03.663Z,11.95
2019-03-04T02:02:04.503Z,12.00
2019-03-04T02:12:05.338Z,11.70
2019-03-04T02:22:06.044Z,11.88
2019-03-04T02:32:06.947Z,11.65
2019-03-04T02:42:07.718Z,11.72
2019-03-04T02:52:08.456Z,11.41
2019-03-04T03:02:09.240Z,11.51
2019-03-04T03:12:10.207Z,11.46
2019-03-04T03:22:12.071Z,11.35
2019-03-04T03:32:12.815Z,11.78
2019-03-04T03:42:13.449Z,12.02
2019-03-04T03:52:14.338Z,11.99
2019-03-04T04:02:15.213Z,12.15
2019-03-04T04:12:16.304Z,12.13
2019-03-04T04:22:17.040Z,12.06
2019-03-04T04:32:18.042Z,11.85
2019-03-04T04:42:19.015Z,11.75
2019-03-04T04:52:19.996Z,12.08
2019-03-04T05:02:21.036Z,12.10
2019-03-04T05:12:21.720Z,11.95
2019-03-04T05:22:22.650Z,11.54
2019-03-04T05:32:23.549Z,11.49
2019-03-04T05:42:24.628Z,11.49
2019-03-04T05:52:25.587Z,11.29
2019-03-04T06:02:26.493Z,11.06
2019-03-04T06:12:27.126Z,9.68
2019-03-04T06:22:28.087Z,10.32
2019-03-04T06:32:28.852Z,10.90
2019-03-04T06:42:29.778Z,11.14
2019-03-04T06:52:31.906Z,11.29
2019-03-04T07:02:38.796Z,11.22
2019-03-04T07:12:39.575Z,11.00
2019-03-04T07:22:40.499Z,11.20
2019-03-04T07:32:41.404Z,11.07
2019-03-04T07:42:42.371Z,11.00
2019-03-04T07:52:45.287Z,10.98
2019-03-04T08:02:45.956Z,8.76
2019-03-04T08:12:50.801Z,9.97
2019-03-04T08:22:51.899Z,8.68
2019-03-04T08:32:52.878Z,8.10
